Time;durP1;ratioP1;P1;durP2;ratioP2;P2;SDS_P1;SDS_P2;PMS_P1;PMS_P2;Temp;Humidity;BMP_temperature;BMP_pressure;BME280_temperature;BME280_humidity;BME280_pressure;Samples;Min_cycle;Max_cycle;Signal;HPM_P1;HPM_P2
2022/11/30 00:02:06;;;;;;;199.77;29.70;;;7.30;99.90;;;;;;5033679;28;20203;-55
2022/11/30 00:04:33;;;;;;;160.60;28.53;;;7.30;99.90;;;;;;5032800;28;20227;-56
2022/11/30 00:07:00;;;;;;;173.57;29.60;;;7.30;99.90;;;;;;5033335;28;20202;-52
2022/11/30 00:09:26;;;;;;;158.03;27.13;;;7.30;99.90;;;;;;5033755;28;20212;-55
2022/11/30 00:11:53;;;;;;;204.23;28.07;;;7.30;99.90;;;;;;5033318;28;20229;-56
2022/11/30 00:14:21;;;;;;;252.20;30.87;;;7.40;99.90;;;;;;5047568;28;20736;-54
2022/11/30 00:16:49;;;;;;;120.77;26.07;;;7.30;99.90;;;;;;5053355;28;20214;-55
2022/11/30 00:19:16;;;;;;;159.80;27.93;;;7.30;99.90;;;;;;5053509;28;20268;-56
2022/11/30 00:21:42;;;;;;;196.03;31.27;;;7.30;99.90;;;;;;5053264;28;20202;-56
2022/11/30 00:24:09;;;;;;;233.50;29.37;;;7.40;99.90;;;;;;5052955;28;20684;-56
2022/11/30 00:26:36;;;;;;;267.47;31.70;;;7.40;99.90;;;;;;5052792;28;20213;-57
2022/11/30 00:29:02;;;;;;;220.30;29.03;;;7.40;99.90;;;;;;5053231;28;20206;-56
2022/11/30 00:31:30;;;;;;;237.23;28.80;;;7.40;99.90;;;;;;5052902;28;20229;-55
2022/11/30 00:33:57;;;;;;;271.60;30.43;;;7.50;99.90;;;;;;5052934;28;20204;-57
2022/11/30 00:36:24;;;;;;;300.87;32.57;;;7.50;99.90;;;;;;5052684;28;20238;-56
2022/11/30 00:38:51;;;;;;;230.50;27.77;;;7.50;99.90;;;;;;5052487;28;20219;-56
2022/11/30 00:41:19;;;;;;;213.33;28.67;;;7.50;99.90;;;;;;5052886;28;20202;-57
2022/11/30 00:43:46;;;;;;;214.97;28.57;;;7.30;99.90;;;;;;5052531;28;20214;-55
2022/11/30 00:46:13;;;;;;;176.23;28.23;;;7.40;99.90;;;;;;5052685;28;20283;-55
2022/11/30 00:48:41;;;;;;;185.77;28.23;;;7.40;99.90;;;;;;5052958;28;20211;-56
2022/11/30 00:51:10;;;;;;;139.20;26.40;;;7.40;99.90;;;;;;5052450;28;20701;-55
2022/11/30 00:53:36;;;;;;;127.17;26.20;;;7.40;99.90;;;;;;5052551;28;20646;-57
2022/11/30 00:56:03;;;;;;;117.97;25.10;;;7.50;99.90;;;;;;5052572;28;20230;-55
2022/11/30 00:58:30;;;;;;;77.93;23.53;;;7.50;99.90;;;;;;5052911;28;20206;-53
2022/11/30 01:00:56;;;;;;;73.97;23.37;;;7.50;99.90;;;;;;5052679;28;20629;-55
2022/11/30 01:03:23;;;;;;;80.53;22.30;;;7.50;99.90;;;;;;5052510;28;20209;-56
2022/11/30 01:05:51;;;;;;;68.37;22.47;;;7.40;99.90;;;;;;5052244;28;20238;-55
2022/11/30 01:08:18;;;;;;;71.63;22.63;;;7.40;99.90;;;;;;5052195;28;20235;-55
2022/11/30 01:10:46;;;;;;;83.97;21.53;;;7.30;99.90;;;;;;5052468;28;20735;-53
2022/11/30 01:13:13;;;;;;;66.60;22.13;;;7.40;99.90;;;;;;5052359;28;20263;-55
2022/11/30 01:15:43;;;;;;;68.27;21.03;;;7.40;99.90;;;;;;5051896;28;20340;-54
2022/11/30 01:18:10;;;;;;;73.17;20.77;;;7.40;99.90;;;;;;5052333;28;20263;-49
2022/11/30 01:20:41;;;;;;;78.20;21.33;;;7.40;99.90;;;;;;5051997;28;20202;-52
2022/11/30 01:23:09;;;;;;;72.43;22.20;;;7.40;99.90;;;;;;5052128;28;20201;-54
2022/11/30 01:25:36;;;;;;;64.50;21.07;;;7.40;99.90;;;;;;5052030;28;20760;-55
2022/11/30 01:28:02;;;;;;;64.33;20.87;;;7.40;99.90;;;;;;5051644;28;20580;-55
2022/11/30 01:30:29;;;;;;;62.90;20.13;;;7.40;99.90;;;;;;5052065;28;20670;-55
2022/11/30 01:32:56;;;;;;;58.60;19.83;;;7.40;99.90;;;;;;5051820;28;20206;-52
2022/11/30 01:35:22;;;;;;;64.17;20.03;;;7.40;99.90;;;;;;5051531;28;20226;-55
2022/11/30 01:37:49;;;;;;;63.43;19.93;;;7.50;99.90;;;;;;5051788;28;20214;-55
2022/11/30 01:40:17;;;;;;;57.50;20.37;;;7.50;99.90;;;;;;5051901;28;20206;-55
2022/11/30 01:42:46;;;;;;;73.40;20.60;;;7.50;99.90;;;;;;5051955;28;20236;-57
2022/11/30 01:45:14;;;;;;;75.20;21.93;;;7.50;99.90;;;;;;5051638;28;20655;-55
2022/11/30 01:47:43;;;;;;;75.40;21.93;;;7.50;99.90;;;;;;5051552;28;20214;-55
2022/11/30 01:50:14;;;;;;;63.40;22.13;;;7.50;99.90;;;;;;5051659;28;20222;-57
2022/11/30 01:52:44;;;;;;;68.83;21.33;;;7.50;99.90;;;;;;5051708;28;20225;-56
2022/11/30 01:55:19;;;;;;;86.63;22.47;;;7.50;99.90;;;;;;5051604;28;20231;-56
2022/11/30 01:57:51;;;;;;;68.97;20.37;;;7.40;99.90;;;;;;5051516;28;20220;-56
2022/11/30 02:00:18;;;;;;;62.10;19.83;;;7.40;99.90;;;;;;5051375;28;20275;-57
2022/11/30 02:02:52;;;;;;;61.03;21.33;;;7.40;99.90;;;;;;5051543;28;20209;-56
2022/11/30 02:05:21;;;;;;;57.70;20.03;;;7.50;99.90;;;;;;5051213;28;20349;-55
2022/11/30 02:07:47;;;;;;;64.10;20.97;;;7.50;99.90;;;;;;5051661;28;20208;-56
2022/11/30 02:10:15;;;;;;;115.80;21.40;;;7.50;99.90;;;;;;5051383;28;20207;-56
2022/11/30 02:13:03;;;;;;;82.77;19.93;;;7.50;99.90;;;;;;5051257;28;20772;-54
2022/11/30 02:15:38;;;;;;;51.13;19.20;;;7.60;99.90;;;;;;5051304;28;20231;-52
2022/11/30 02:18:12;;;;;;;69.13;18.23;;;7.50;99.90;;;;;;5051352;28;20205;-56
2022/11/30 02:20:59;;;;;;;79.47;19.37;;;7.60;99.90;;;;;;5051100;28;20635;-55
2022/11/30 02:23:42;;;;;;;72.87;20.27;;;7.60;99.90;;;;;;5051215;28;20215;-55
2022/11/30 02:26:20;;;;;;;147.30;21.27;;;7.60;99.90;;;;;;5050956;28;20254;-57
2022/11/30 02:29:02;;;;;;;55.33;20.10;;;7.30;99.90;;;;;;5053207;28;20209;-56
2022/11/30 02:31:34;;;;;;;60.47;21.87;;;7.10;99.90;;;;;;5055250;28;20229;-57
2022/11/30 02:34:04;;;;;;;66.40;21.03;;;7.10;99.90;;;;;;5055560;28;20213;-56
2022/11/30 02:36:32;;;;;;;63.27;20.50;;;7.20;99.90;;;;;;5054737;28;20263;-54
2022/11/30 02:38:58;;;;;;;60.20;18.77;;;7.10;99.90;;;;;;5055048;28;20221;-57
2022/11/30 02:41:25;;;;;;;47.80;18.37;;;7.10;99.90;;;;;;5055094;28;20228;-56
2022/11/30 02:43:53;;;;;;;49.70;19.13;;;7.00;99.90;;;;;;5055061;28;20206;-54
2022/11/30 02:46:26;;;;;;;49.53;18.23;;;7.00;99.90;;;;;;5054922;28;20222;-57
2022/11/30 02:48:58;;;;;;;54.00;20.40;;;6.90;99.90;;;;;;5055401;28;20323;-57
2022/11/30 02:51:27;;;;;;;54.43;19.57;;;6.90;99.90;;;;;;5054876;28;20225;-54
2022/11/30 02:53:54;;;;;;;63.23;21.73;;;7.00;99.90;;;;;;5054983;28;20624;-55
2022/11/30 02:56:22;;;;;;;65.93;22.20;;;6.90;99.90;;;;;;5054548;28;20758;-54
2022/11/30 02:58:49;;;;;;;71.33;22.90;;;6.90;99.90;;;;;;5054993;28;20688;-57
2022/11/30 03:01:17;;;;;;;114.53;22.73;;;6.90;99.90;;;;;;5055078;28;20256;-56
2022/11/30 03:03:44;;;;;;;81.37;25.03;;;6.80;99.90;;;;;;5055096;28;20213;-57
2022/11/30 03:06:11;;;;;;;72.87;25.20;;;6.80;99.90;;;;;;5054297;28;20316;-54
2022/11/30 03:08:37;;;;;;;102.83;26.03;;;6.70;99.90;;;;;;5054574;28;20217;-57
2022/11/30 03:11:05;;;;;;;69.57;24.43;;;6.70;99.90;;;;;;5054477;28;20212;-56
2022/11/30 03:13:32;;;;;;;62.70;22.77;;;6.70;99.90;;;;;;5054609;28;20201;-55
2022/11/30 03:16:05;;;;;;;85.63;26.23;;;6.70;99.90;;;;;;5046128;28;20743;-56
2022/11/30 03:18:34;;;;;;;88.77;26.17;;;6.70;99.90;;;;;;5054670;28;20623;-55
2022/11/30 03:21:04;;;;;;;135.30;26.13;;;6.60;99.90;;;;;;5054449;28;20259;-57
2022/11/30 03:23:31;;;;;;;113.23;25.67;;;6.60;99.90;;;;;;5054091;28;20279;-57
2022/11/30 03:25:57;;;;;;;93.00;25.13;;;6.60;99.90;;;;;;5054025;28;20227;-56
2022/11/30 03:28:25;;;;;;;98.67;25.93;;;6.50;99.90;;;;;;5054181;28;20296;-58
2022/11/30 03:30:52;;;;;;;104.03;24.10;;;6.60;99.90;;;;;;5053803;28;20212;-57
2022/11/30 03:33:18;;;;;;;77.43;22.80;;;6.50;99.90;;;;;;5054120;28;20268;-56
2022/11/30 03:35:46;;;;;;;122.70;26.00;;;6.50;99.90;;;;;;5053889;28;20257;-56
2022/11/30 03:38:13;;;;;;;132.93;27.33;;;6.50;99.90;;;;;;5053755;28;20217;-57
2022/11/30 03:40:40;;;;;;;120.43;25.77;;;6.50;99.90;;;;;;5054296;28;20205;-53
2022/11/30 03:43:06;;;;;;;91.77;26.60;;;6.50;99.90;;;;;;5054051;28;20208;-55
2022/11/30 03:45:33;;;;;;;81.90;25.83;;;6.50;99.90;;;;;;5053935;28;20221;-56
2022/11/30 03:48:00;;;;;;;108.50;28.00;;;6.50;99.90;;;;;;5053903;28;20225;-57
2022/11/30 03:50:26;;;;;;;93.83;25.77;;;6.50;99.90;;;;;;5053862;28;20260;-56
2022/11/30 03:52:54;;;;;;;84.07;24.83;;;6.40;99.90;;;;;;5053184;28;20287;-57
2022/11/30 03:55:21;;;;;;;77.83;25.70;;;6.40;99.90;;;;;;5053667;28;20605;-57
2022/11/30 03:57:48;;;;;;;71.47;26.63;;;6.40;99.90;;;;;;5053959;28;20210;-56
2022/11/30 04:00:15;;;;;;;73.93;26.00;;;6.40;99.90;;;;;;5053944;28;20206;-56
2022/11/30 04:02:42;;;;;;;71.90;25.30;;;6.40;99.90;;;;;;5053673;28;20202;-56
2022/11/30 04:05:09;;;;;;;79.60;25.80;;;6.30;99.90;;;;;;5053298;28;20237;-54
2022/11/30 04:07:36;;;;;;;73.27;26.33;;;6.20;99.90;;;;;;5053723;28;20213;-56
2022/11/30 04:10:04;;;;;;;73.13;26.10;;;6.20;99.90;;;;;;5053682;28;20209;-55
2022/11/30 04:12:31;;;;;;;80.80;27.23;;;6.10;99.90;;;;;;5053664;28;20230;-55
2022/11/30 04:14:58;;;;;;;79.00;25.50;;;6.10;99.90;;;;;;5053167;28;20232;-57
2022/11/30 04:17:24;;;;;;;83.50;27.03;;;6.10;99.90;;;;;;5053505;28;20252;-57
2022/11/30 04:19:51;;;;;;;80.07;26.87;;;6.10;99.90;;;;;;5053178;28;20669;-57
2022/11/30 04:22:18;;;;;;;75.17;26.47;;;6.20;99.90;;;;;;5053261;28;20205;-56
2022/11/30 04:24:44;;;;;;;73.77;27.13;;;6.20;99.90;;;;;;5053231;28;20222;-56
2022/11/30 04:27:12;;;;;;;64.93;25.20;;;6.20;99.90;;;;;;5053126;28;20209;-55
2022/11/30 04:29:39;;;;;;;72.57;25.73;;;6.10;99.90;;;;;;5053093;28;20205;-54
2022/11/30 04:32:06;;;;;;;69.93;26.00;;;6.10;99.90;;;;;;5053038;28;20226;-55
2022/11/30 04:34:32;;;;;;;66.40;26.07;;;6.10;99.90;;;;;;5053033;28;20273;-56
2022/11/30 04:36:59;;;;;;;64.53;24.17;;;6.10;99.90;;;;;;5052748;28;20259;-55
2022/11/30 04:39:26;;;;;;;63.33;25.03;;;6.10;99.90;;;;;;5052950;28;20210;-55
2022/11/30 04:41:52;;;;;;;66.90;24.97;;;6.10;99.90;;;;;;5053240;28;20255;-56
2022/11/30 04:44:20;;;;;;;58.17;23.57;;;6.10;99.90;;;;;;5052652;28;20256;-55
2022/11/30 04:46:47;;;;;;;62.50;22.77;;;6.00;99.90;;;;;;5052775;28;20398;-54
2022/11/30 04:49:14;;;;;;;60.90;24.80;;;6.00;99.90;;;;;;5052766;28;20268;-53
2022/11/30 04:51:40;;;;;;;58.30;24.07;;;6.00;99.90;;;;;;5052136;28;20229;-55
2022/11/30 04:54:07;;;;;;;60.17;24.50;;;6.10;99.90;;;;;;5052901;28;20206;-56
2022/11/30 04:56:34;;;;;;;67.17;26.80;;;6.00;99.90;;;;;;5052612;28;20213;-56
2022/11/30 04:59:01;;;;;;;64.47;22.83;;;6.00;99.90;;;;;;5052692;28;20216;-55
2022/11/30 05:01:29;;;;;;;65.87;24.07;;;6.00;99.90;;;;;;5052472;28;20210;-54
2022/11/30 05:03:56;;;;;;;56.50;22.90;;;6.00;99.90;;;;;;5052856;28;20550;-53
2022/11/30 05:06:23;;;;;;;55.87;22.37;;;5.90;99.90;;;;;;5052183;28;20229;-52
2022/11/30 05:08:49;;;;;;;66.90;24.93;;;5.80;99.90;;;;;;5052523;28;20209;-54
2022/11/30 05:11:16;;;;;;;58.73;23.83;;;5.90;99.90;;;;;;5052598;28;20255;-52
2022/11/30 05:13:42;;;;;;;60.83;25.07;;;6.00;99.90;;;;;;5052183;28;20282;-54
2022/11/30 05:16:10;;;;;;;56.07;22.97;;;5.90;99.90;;;;;;5051785;28;20222;-53
2022/11/30 05:18:38;;;;;;;62.57;22.77;;;5.90;99.90;;;;;;5052583;28;20295;-52
2022/11/30 05:21:05;;;;;;;61.87;23.83;;;5.80;99.90;;;;;;5052096;28;20210;-54
2022/11/30 05:23:32;;;;;;;59.40;24.90;;;5.90;99.90;;;;;;5052215;28;20289;-52
2022/11/30 05:26:01;;;;;;;64.03;24.60;;;6.00;99.90;;;;;;5051742;28;20283;-54
2022/11/30 05:28:28;;;;;;;57.40;23.37;;;6.10;99.90;;;;;;5052050;28;20290;-52
2022/11/30 05:30:54;;;;;;;61.90;24.53;;;6.10;99.90;;;;;;5051956;28;20596;-54
2022/11/30 05:33:21;;;;;;;55.87;23.93;;;6.20;99.90;;;;;;5051349;28;20719;-55
2022/11/30 05:35:49;;;;;;;54.70;22.83;;;6.20;99.90;;;;;;5051582;28;20241;-51
2022/11/30 05:38:16;;;;;;;55.47;22.93;;;6.20;99.90;;;;;;5051373;28;20221;-51
2022/11/30 05:40:42;;;;;;;53.17;21.87;;;6.20;99.90;;;;;;5051836;28;20205;-48
2022/11/30 05:43:10;;;;;;;52.03;22.07;;;6.30;99.90;;;;;;5051742;28;20229;-56
2022/11/30 05:45:36;;;;;;;48.07;21.73;;;6.30;99.90;;;;;;5051678;28;20229;-64
2022/11/30 05:48:03;;;;;;;48.20;20.70;;;6.30;99.90;;;;;;5050755;28;20272;-64
2022/11/30 05:50:30;;;;;;;52.30;23.77;;;6.30;99.90;;;;;;5050776;28;20624;-53
2022/11/30 05:52:59;;;;;;;46.77;21.83;;;6.30;99.90;;;;;;5051361;28;20626;-52
2022/11/30 05:55:27;;;;;;;45.07;21.13;;;6.30;99.90;;;;;;5051418;28;20304;-55
2022/11/30 05:57:54;;;;;;;50.53;22.77;;;6.40;99.90;;;;;;5050735;28;20243;-54
2022/11/30 06:00:21;;;;;;;47.10;21.20;;;6.40;99.90;;;;;;5051301;28;20276;-50
2022/11/30 06:02:48;;;;;;;46.37;22.70;;;6.40;99.90;;;;;;5050155;28;20205;-53
2022/11/30 06:05:15;;;;;;;47.30;22.60;;;6.40;99.90;;;;;;5051164;28;20299;-51
2022/11/30 06:07:42;;;;;;;44.63;21.10;;;6.40;99.90;;;;;;5050642;28;20201;-56
2022/11/30 06:10:11;;;;;;;40.23;20.03;;;6.40;99.90;;;;;;5050921;28;20216;-51
2022/11/30 06:12:38;;;;;;;39.73;20.10;;;6.40;99.90;;;;;;5050592;28;20233;-54
2022/11/30 06:15:05;;;;;;;44.03;21.10;;;6.40;99.90;;;;;;5051187;28;20225;-54
2022/11/30 06:17:31;;;;;;;39.07;18.80;;;6.40;99.90;;;;;;5050682;28;20210;-51
2022/11/30 06:19:58;;;;;;;37.43;19.93;;;6.40;99.90;;;;;;5050864;28;20198;-54
2022/11/30 06:22:25;;;;;;;39.43;20.10;;;6.40;99.90;;;;;;5051386;28;20216;-55
2022/11/30 06:24:52;;;;;;;45.90;20.80;;;6.40;99.90;;;;;;5050414;28;20225;-53
2022/11/30 06:27:20;;;;;;;38.77;19.27;;;6.40;99.90;;;;;;5051180;28;20251;-52
2022/11/30 06:29:48;;;;;;;37.70;19.33;;;6.20;99.90;;;;;;5050935;28;20210;-53
2022/11/30 06:32:14;;;;;;;40.13;19.17;;;6.30;99.90;;;;;;5051117;28;20233;-55
2022/11/30 06:34:41;;;;;;;38.97;19.07;;;6.30;99.90;;;;;;5049283;28;20221;-59
2022/11/30 06:37:08;;;;;;;36.90;18.97;;;6.40;99.90;;;;;;5050315;28;20210;-57
2022/11/30 06:39:34;;;;;;;38.37;19.47;;;6.40;99.90;;;;;;5042049;28;20206;-58
2022/11/30 06:42:02;;;;;;;38.43;20.00;;;6.40;99.90;;;;;;5039154;28;20199;-56
2022/11/30 06:44:30;;;;;;;40.37;20.47;;;6.50;99.90;;;;;;5046349;28;20270;-56
2022/11/30 06:46:56;;;;;;;40.57;18.80;;;6.50;99.90;;;;;;5050236;28;20843;-57
2022/11/30 06:49:23;;;;;;;39.57;19.83;;;6.50;99.90;;;;;;5043040;28;20202;-57
2022/11/30 06:51:50;;;;;;;39.00;19.57;;;6.50;99.90;;;;;;5033705;28;20310;-57
2022/11/30 06:54:17;;;;;;;40.10;19.93;;;6.50;99.90;;;;;;5042361;28;20696;-57
2022/11/30 06:56:43;;;;;;;38.80;19.93;;;6.60;99.90;;;;;;5041725;28;20676;-56
2022/11/30 06:59:10;;;;;;;36.67;19.27;;;6.50;99.90;;;;;;5042560;28;20206;-56
2022/11/30 07:01:38;;;;;;;40.37;20.97;;;6.50;99.90;;;;;;5041331;28;20638;-58
2022/11/30 07:04:05;;;;;;;39.53;20.07;;;6.50;99.90;;;;;;5038931;28;20209;-55
2022/11/30 07:06:32;;;;;;;40.10;19.27;;;6.50;99.90;;;;;;5046050;28;20264;-57
2022/11/30 07:08:58;;;;;;;41.43;19.67;;;6.50;99.90;;;;;;5050654;28;20217;-56
2022/11/30 07:11:25;;;;;;;36.87;19.83;;;6.40;99.90;;;;;;5050563;28;20213;-57
2022/11/30 07:13:52;;;;;;;40.37;20.83;;;6.40;99.90;;;;;;5050668;28;20229;-56
2022/11/30 07:16:18;;;;;;;38.37;20.27;;;6.40;99.90;;;;;;5054152;28;20260;-54
2022/11/30 07:18:46;;;;;;;38.43;20.20;;;6.50;99.90;;;;;;5053884;28;20210;-57
2022/11/30 07:21:13;;;;;;;42.63;20.97;;;6.40;99.90;;;;;;5054070;28;20263;-56
2022/11/30 07:26:25;;;;;;;44.47;21.77;;;6.40;99.90;;;;;;5053828;28;20228;-58
2022/11/30 07:28:56;;;;;;;37.57;20.23;;;6.50;99.90;;;;;;5053574;28;20206;-60
2022/11/30 07:31:25;;;;;;;40.90;20.97;;;6.50;99.90;;;;;;5053719;28;20677;-58
2022/11/30 07:33:54;;;;;;;41.23;21.07;;;6.50;99.90;;;;;;5053937;28;20681;-59
2022/11/30 07:36:24;;;;;;;46.40;21.83;;;6.50;99.90;;;;;;5053782;28;20268;-60
2022/11/30 07:38:51;;;;;;;45.03;22.70;;;6.50;99.90;;;;;;5053371;28;20307;-57
2022/11/30 07:41:18;;;;;;;42.60;20.83;;;6.40;99.90;;;;;;5053962;28;20198;-59
2022/11/30 07:43:44;;;;;;;45.43;22.87;;;6.40;99.90;;;;;;5053790;28;20664;-58
2022/11/30 07:46:13;;;;;;;41.10;22.70;;;6.30;99.90;;;;;;5053065;28;20230;-58
2022/11/30 07:48:40;;;;;;;46.27;23.13;;;6.20;99.90;;;;;;5053682;28;20743;-59
2022/11/30 07:51:12;;;;;;;50.53;25.40;;;6.30;99.90;;;;;;5053314;28;20259;-61
2022/11/30 07:53:39;;;;;;;50.90;23.50;;;6.30;99.90;;;;;;5053607;28;20238;-60
2022/11/30 07:56:08;;;;;;;47.27;22.93;;;6.30;99.90;;;;;;5053051;28;20221;-60
2022/11/30 07:58:35;;;;;;;48.87;23.43;;;6.10;99.90;;;;;;5053219;28;20791;-60
2022/11/30 08:01:03;;;;;;;49.77;23.37;;;6.20;99.90;;;;;;5041225;28;20214;-60
2022/11/30 08:03:30;;;;;;;53.77;23.83;;;6.20;99.90;;;;;;5033677;28;20199;-59
2022/11/30 08:06:02;;;;;;;49.73;23.97;;;6.30;99.90;;;;;;5032684;28;20234;-60
2022/11/30 08:08:31;;;;;;;49.33;23.23;;;6.30;99.90;;;;;;5033688;28;20683;-60
2022/11/30 08:10:58;;;;;;;51.73;25.57;;;6.30;99.90;;;;;;5032435;28;20206;-60
2022/11/30 08:13:25;;;;;;;55.43;24.30;;;6.20;99.90;;;;;;5039523;28;20221;-61
2022/11/30 08:15:52;;;;;;;51.33;24.20;;;6.20;99.90;;;;;;5052900;28;20221;-59
2022/11/30 08:18:19;;;;;;;50.37;23.77;;;6.30;99.90;;;;;;5052816;28;20206;-59
2022/11/30 08:20:46;;;;;;;46.20;23.20;;;6.40;99.90;;;;;;5052946;28;20206;-60
2022/11/30 08:23:12;;;;;;;54.27;24.87;;;6.50;99.90;;;;;;5047446;28;20203;-59
2022/11/30 08:25:41;;;;;;;48.37;24.13;;;6.50;99.90;;;;;;5040669;28;20222;-59
2022/11/30 08:28:07;;;;;;;46.53;23.60;;;6.50;99.90;;;;;;5052980;28;20259;-60
2022/11/30 08:30:34;;;;;;;48.80;23.87;;;6.40;99.90;;;;;;5053183;28;20210;-59
2022/11/30 08:33:00;;;;;;;44.30;22.93;;;6.50;99.90;;;;;;5052800;28;20659;-60
2022/11/30 08:35:27;;;;;;;50.60;23.63;;;6.50;99.90;;;;;;5052720;28;20629;-59
2022/11/30 08:37:54;;;;;;;48.87;22.90;;;6.50;99.90;;;;;;5052288;28;20248;-59
2022/11/30 08:40:20;;;;;;;49.40;24.13;;;6.40;99.90;;;;;;5052772;28;20403;-59
2022/11/30 08:42:48;;;;;;;49.70;22.93;;;6.40;99.90;;;;;;5053062;28;20213;-61
2022/11/30 08:45:15;;;;;;;48.13;22.93;;;6.40;99.90;;;;;;5052117;28;20225;-58
2022/11/30 08:47:42;;;;;;;48.77;22.67;;;6.40;99.90;;;;;;5052214;28;20236;-59
2022/11/30 08:50:09;;;;;;;55.50;24.77;;;6.40;99.90;;;;;;5052298;28;20202;-59
2022/11/30 08:52:36;;;;;;;50.97;24.33;;;6.50;99.90;;;;;;5052188;28;20754;-59
2022/11/30 08:55:03;;;;;;;47.73;23.73;;;6.40;99.90;;;;;;5040941;28;20273;-60
2022/11/30 08:57:30;;;;;;;51.80;24.33;;;6.40;99.90;;;;;;5040986;28;20206;-61
2022/11/30 08:59:58;;;;;;;51.13;25.13;;;6.40;99.90;;;;;;5032567;28;20202;-61
2022/11/30 09:02:24;;;;;;;48.47;24.17;;;6.50;99.90;;;;;;5032870;28;20264;-61
2022/11/30 09:04:52;;;;;;;50.60;24.37;;;6.50;99.90;;;;;;5044543;28;20276;-61
2022/11/30 09:07:19;;;;;;;55.03;25.63;;;6.50;99.90;;;;;;5052835;28;20607;-61
2022/11/30 09:09:46;;;;;;;48.87;24.70;;;6.50;99.90;;;;;;5053975;28;20214;-62
2022/11/30 09:12:13;;;;;;;50.90;22.43;;;6.60;99.90;;;;;;5046167;28;20667;-60
2022/11/30 09:14:39;;;;;;;56.27;25.33;;;6.50;99.90;;;;;;5051632;28;20629;-64
2022/11/30 09:17:07;;;;;;;53.33;24.40;;;6.50;99.90;;;;;;5050637;28;20215;-62
2022/11/30 09:19:34;;;;;;;51.03;24.53;;;6.40;99.90;;;;;;5051772;28;20197;-61
2022/11/30 09:22:01;;;;;;;50.17;22.47;;;6.40;99.90;;;;;;5051077;28;20676;-64
2022/11/30 09:24:28;;;;;;;52.13;24.67;;;6.40;99.90;;;;;;5052095;28;20233;-64
2022/11/30 09:26:55;;;;;;;53.80;23.87;;;6.40;99.90;;;;;;5050871;28;20854;-64
2022/11/30 09:29:22;;;;;;;44.80;22.73;;;6.50;99.90;;;;;;5051928;28;20238;-64
2022/11/30 09:31:49;;;;;;;47.30;23.57;;;6.50;99.90;;;;;;5049425;28;20284;-63
2022/11/30 09:34:17;;;;;;;50.30;23.77;;;6.40;99.90;;;;;;5051508;28;20590;-64
2022/11/30 09:36:43;;;;;;;56.00;23.33;;;6.30;99.90;;;;;;5051110;28;20283;-63
2022/11/30 09:39:11;;;;;;;51.50;24.30;;;6.30;99.90;;;;;;5051415;28;20216;-57
2022/11/30 09:42:05;;;;;;;49.13;23.80;;;6.40;99.90;;;;;;5051546;28;20680;-56
2022/11/30 09:44:37;;;;;;;51.20;23.63;;;6.50;99.90;;;;;;5050958;28;20217;-58
2022/11/30 09:47:12;;;;;;;51.83;22.53;;;6.50;99.90;;;;;;5041761;28;20259;-60
2022/11/30 09:49:43;;;;;;;50.83;23.87;;;6.50;99.90;;;;;;5050962;28;20723;-59
2022/11/30 09:52:14;;;;;;;49.80;24.73;;;6.50;99.90;;;;;;5051242;28;20201;-58
2022/11/30 09:54:43;;;;;;;48.30;23.93;;;6.50;99.90;;;;;;5050884;28;20279;-59
2022/11/30 09:57:21;;;;;;;48.40;23.73;;;6.50;99.90;;;;;;5051022;28;20202;-61
2022/11/30 09:59:54;;;;;;;52.57;24.57;;;6.50;99.90;;;;;;5051298;28;20205;-59
2022/11/30 10:02:24;;;;;;;46.67;22.60;;;6.50;99.90;;;;;;5050542;28;20673;-60
2022/11/30 10:04:52;;;;;;;45.63;23.03;;;6.50;99.90;;;;;;5051428;28;20596;-60
2022/11/30 10:07:41;;;;;;;48.73;23.10;;;6.60;99.90;;;;;;5050474;28;20212;-59
2022/11/30 10:10:17;;;;;;;48.63;23.70;;;6.60;99.90;;;;;;5051099;28;20668;-60
2022/11/30 10:12:52;;;;;;;46.83;23.63;;;6.60;99.90;;;;;;5050371;28;20672;-59
2022/11/30 10:15:34;;;;;;;45.37;23.23;;;6.60;99.90;;;;;;5050919;28;20240;-61
2022/11/30 10:18:08;;;;;;;49.77;24.00;;;6.60;99.90;;;;;;5050690;28;20209;-61
2022/11/30 10:20:50;;;;;;;44.67;22.57;;;6.60;99.90;;;;;;5051284;28;20216;-61
2022/11/30 10:23:29;;;;;;;53.53;24.33;;;6.60;99.90;;;;;;5050851;28;20205;-61
2022/11/30 10:25:57;;;;;;;42.47;21.60;;;6.60;99.90;;;;;;5053154;28;20228;-61
2022/11/30 10:28:34;;;;;;;43.70;22.10;;;6.60;99.90;;;;;;5047727;28;20570;-63
2022/11/30 10:31:02;;;;;;;46.47;22.27;;;6.60;99.90;;;;;;5043441;28;20209;-63
2022/11/30 10:33:36;;;;;;;42.93;21.93;;;6.60;99.90;;;;;;5051044;28;20225;-58
2022/11/30 10:36:09;;;;;;;46.10;22.83;;;6.50;99.90;;;;;;5050490;28;20734;-58
2022/11/30 10:38:42;;;;;;;47.77;22.67;;;6.50;99.90;;;;;;5050726;28;20305;-59
2022/11/30 10:41:12;;;;;;;50.90;22.80;;;6.50;99.90;;;;;;5050234;28;20582;-61
2022/11/30 10:43:46;;;;;;;47.00;21.90;;;6.60;99.90;;;;;;5041632;28;20198;-61
2022/11/30 10:46:20;;;;;;;42.57;20.50;;;6.50;99.90;;;;;;5041814;28;20307;-63
2022/11/30 10:48:51;;;;;;;48.33;22.70;;;6.50;99.90;;;;;;5050078;28;20189;-61
2022/11/30 10:51:20;;;;;;;44.77;21.57;;;6.50;99.90;;;;;;5045853;28;20213;-61
2022/11/30 10:53:47;;;;;;;43.27;22.07;;;6.50;99.90;;;;;;5054488;28;20228;-60
2022/11/30 10:56:14;;;;;;;43.70;22.10;;;6.50;99.90;;;;;;5053897;28;20233;-60
2022/11/30 10:58:50;;;;;;;45.80;22.47;;;6.50;99.90;;;;;;5054446;28;20627;-59
2022/11/30 11:01:33;;;;;;;47.23;23.13;;;6.50;99.90;;;;;;5054578;28;20209;-58
2022/11/30 11:04:14;;;;;;;43.47;22.83;;;6.50;99.90;;;;;;5054423;28;20212;-58
2022/11/30 11:06:45;;;;;;;43.47;21.23;;;6.60;99.90;;;;;;5054132;28;20296;-60
2022/11/30 11:09:35;;;;;;;47.57;22.37;;;6.60;99.90;;;;;;5054891;28;20646;-60
2022/11/30 11:12:04;;;;;;;43.97;21.73;;;6.50;99.90;;;;;;5055109;28;20217;-58
2022/11/30 11:14:32;;;;;;;43.90;23.43;;;6.60;99.90;;;;;;5054037;28;20225;-61
2022/11/30 11:17:01;;;;;;;41.30;21.13;;;6.70;99.90;;;;;;5054345;28;20220;-58
2022/11/30 11:19:34;;;;;;;43.03;22.03;;;6.50;99.90;;;;;;5054469;28;20546;-59
2022/11/30 11:22:04;;;;;;;39.43;20.77;;;6.50;99.90;;;;;;5054506;28;20586;-60
2022/11/30 11:24:32;;;;;;;47.37;25.50;;;6.50;99.90;;;;;;5054088;28;20229;-57
2022/11/30 11:26:59;;;;;;;50.50;22.37;;;6.50;99.90;;;;;;5053791;28;20213;-60
2022/11/30 11:29:32;;;;;;;44.17;22.90;;;6.60;99.90;;;;;;5054188;28;20213;-58
2022/11/30 11:32:20;;;;;;;44.60;21.90;;;6.60;99.90;;;;;;5053802;28;20296;-59
2022/11/30 11:34:48;;;;;;;40.30;22.50;;;6.60;99.90;;;;;;5054000;28;20229;-60
2022/11/30 11:37:22;;;;;;;43.90;21.77;;;6.60;99.90;;;;;;5053244;28;20214;-58
2022/11/30 11:40:01;;;;;;;44.53;21.77;;;6.60;99.90;;;;;;5054187;28;20209;-61
2022/11/30 11:42:30;;;;;;;40.17;21.60;;;6.60;99.90;;;;;;5053582;28;20220;-60
2022/11/30 11:45:00;;;;;;;41.37;21.50;;;6.60;99.90;;;;;;5051840;28;20218;-62
2022/11/30 11:47:29;;;;;;;45.00;21.40;;;6.50;99.90;;;;;;5053104;28;20206;-63
2022/11/30 11:50:24;;;;;;;39.57;20.83;;;6.50;99.90;;;;;;5053747;28;20197;-63
2022/11/30 11:53:13;;;;;;;40.17;20.37;;;6.50;99.90;;;;;;5052888;28;20210;-63
2022/11/30 11:55:41;;;;;;;32.57;19.60;;;6.40;99.90;;;;;;5053541;28;20233;-62
2022/11/30 11:58:16;;;;;;;41.37;21.97;;;6.50;99.90;;;;;;5052722;28;20209;-61
2022/11/30 12:00:43;;;;;;;42.07;20.83;;;6.40;99.90;;;;;;5052173;28;20239;-61
2022/11/30 12:03:18;;;;;;;38.83;21.93;;;6.50;99.90;;;;;;5051968;28;20202;-60
2022/11/30 12:05:50;;;;;;;40.03;21.17;;;6.50;99.90;;;;;;5050777;28;20224;-61
2022/11/30 12:08:28;;;;;;;37.80;21.13;;;6.50;99.90;;;;;;5053074;28;20202;-61
2022/11/30 12:11:00;;;;;;;40.80;20.60;;;6.40;99.90;;;;;;5052993;28;20212;-61
2022/11/30 12:13:32;;;;;;;37.50;20.90;;;6.40;99.90;;;;;;5053434;28;20206;-62
2022/11/30 12:16:06;;;;;;;39.83;20.80;;;6.50;99.90;;;;;;5052658;28;20328;-61
2022/11/30 12:18:42;;;;;;;34.50;19.50;;;6.60;99.90;;;;;;5053142;28;20208;-61
2022/11/30 12:21:14;;;;;;;39.13;20.60;;;6.60;99.90;;;;;;5052705;28;20205;-62
2022/11/30 12:24:04;;;;;;;36.30;18.93;;;6.50;99.90;;;;;;5053389;28;20228;-62
2022/11/30 12:26:37;;;;;;;40.37;19.87;;;6.40;99.90;;;;;;5052203;28;20750;-61
2022/11/30 12:29:22;;;;;;;37.90;19.07;;;6.30;99.90;;;;;;5053361;28;20683;-62
2022/11/30 12:32:07;;;;;;;36.73;19.63;;;6.30;99.90;;;;;;5052662;28;20209;-62
2022/11/30 12:34:49;;;;;;;37.33;19.20;;;6.40;99.90;;;;;;5052902;28;20612;-61
2022/11/30 12:37:29;;;;;;;42.47;22.20;;;6.40;99.90;;;;;;5052206;28;20236;-61
2022/11/30 12:40:07;;;;;;;46.00;20.57;;;6.40;99.90;;;;;;5052773;28;20217;-61
2022/11/30 12:42:42;;;;;;;43.00;20.90;;;6.40;99.90;;;;;;5052246;28;20217;-61
2022/11/30 12:45:18;;;;;;;35.47;19.13;;;6.50;99.90;;;;;;5052820;28;20225;-63
2022/11/30 12:47:57;;;;;;;35.10;18.70;;;6.40;99.90;;;;;;5052391;28;20205;-64
2022/11/30 12:50:35;;;;;;;36.50;18.40;;;6.50;99.90;;;;;;5052542;28;20208;-62